Time;durP1;ratioP1;P1;durP2;ratioP2;P2;SDS_P1;SDS_P2;PMS_P1;PMS_P2;Temp;Humidity;BMP_temperature;BMP_pressure;BME280_temperature;BME280_humidity;BME280_pressure;Samples;Min_cycle;Max_cycle;Signal;HPM_P1;HPM_P2
2023/07/19 00:00:33;;;;;;;6.00;3.70;;;16.60;99.90;;;;;;2062775;28;20342;-84
2023/07/19 00:01:33;;;;;;;3.80;3.40;;;16.60;99.90;;;;;;2058555;28;20604;-83
2023/07/19 00:02:34;;;;;;;5.30;4.17;;;16.50;99.90;;;;;;2065476;28;20265;-81
2023/07/19 00:03:34;;;;;;;7.03;3.73;;;16.50;99.90;;;;;;2070112;28;20427;-82
2023/07/19 00:04:36;;;;;;;5.10;3.60;;;16.50;99.90;;;;;;2073074;28;20715;-82
2023/07/19 00:05:36;;;;;;;5.93;3.97;;;16.60;99.90;;;;;;2070076;28;20232;-84
2023/07/19 00:06:37;;;;;;;4.47;3.70;;;16.60;99.90;;;;;;2070653;28;20499;-83
2023/07/19 00:07:38;;;;;;;5.60;3.63;;;16.60;99.90;;;;;;2062280;28;20225;-83
2023/07/19 00:08:39;;;;;;;6.93;4.00;;;16.60;99.90;;;;;;2070551;28;20268;-82
2023/07/19 00:09:39;;;;;;;6.10;4.00;;;16.60;99.90;;;;;;2070716;28;20536;-83
2023/07/19 00:10:41;;;;;;;5.67;4.30;;;16.50;99.90;;;;;;2070348;28;20249;-82
2023/07/19 00:11:41;;;;;;;4.73;3.63;;;16.50;99.90;;;;;;2079921;28;20231;-84
2023/07/19 00:12:42;;;;;;;4.93;3.90;;;16.60;99.90;;;;;;2078717;28;20544;-82
2023/07/19 00:13:43;;;;;;;6.27;3.67;;;16.50;99.90;;;;;;2070208;28;20316;-82
2023/07/19 00:14:43;;;;;;;5.87;4.23;;;16.60;99.90;;;;;;2070005;28;20787;-83
2023/07/19 00:15:44;;;;;;;7.07;4.10;;;16.50;99.90;;;;;;2065917;28;20226;-82
2023/07/19 00:16:45;;;;;;;5.53;4.10;;;16.50;99.90;;;;;;2065901;28;20226;-82
2023/07/19 00:17:45;;;;;;;4.93;4.00;;;16.50;99.90;;;;;;2073798;28;20245;-83
2023/07/19 00:18:46;;;;;;;4.27;3.23;;;16.50;99.90;;;;;;2073889;28;20231;-82
2023/07/19 00:19:47;;;;;;;4.23;3.23;;;16.50;99.90;;;;;;2072677;28;20283;-83
2023/07/19 00:20:48;;;;;;;6.23;3.90;;;16.50;99.90;;;;;;2081777;28;20558;-83
2023/07/19 00:21:48;;;;;;;5.47;3.83;;;16.50;99.90;;;;;;2073768;28;20361;-82
2023/07/19 00:22:49;;;;;;;8.03;3.53;;;16.50;99.90;;;;;;2066037;28;20304;-84
2023/07/19 00:23:50;;;;;;;4.80;3.47;;;16.40;99.90;;;;;;2066629;28;20226;-83
2023/07/19 00:24:51;;;;;;;5.93;3.50;;;16.40;99.90;;;;;;2065254;28;20237;-83
2023/07/19 00:25:51;;;;;;;6.23;4.10;;;16.40;99.90;;;;;;2073190;28;20228;-83
2023/07/19 00:26:52;;;;;;;6.53;3.63;;;16.40;99.90;;;;;;2072996;28;20253;-83
2023/07/19 00:27:53;;;;;;;4.03;3.55;;;16.40;99.90;;;;;;2072857;28;20255;-84
2023/07/19 00:28:54;;;;;;;5.27;4.17;;;16.40;99.90;;;;;;2070356;28;20249;-81
2023/07/19 00:29:55;;;;;;;5.70;4.50;;;16.50;99.90;;;;;;2069265;28;20654;-83
2023/07/19 00:31:02;;;;;;;6.93;3.70;;;16.50;99.90;;;;;;2073002;28;20241;-83
2023/07/19 00:32:03;;;;;;;5.37;3.63;;;16.50;99.90;;;;;;2070027;28;20670;-83
2023/07/19 00:33:03;;;;;;;5.77;4.17;;;16.30;99.90;;;;;;2069216;28;20427;-84
2023/07/19 00:34:04;;;;;;;4.97;4.23;;;16.30;99.90;;;;;;2065872;28;20804;-82
2023/07/19 00:35:06;;;;;;;7.07;3.77;;;16.20;99.90;;;;;;2066466;28;20178;-83
2023/07/19 00:36:07;;;;;;;7.97;4.25;;;16.30;99.90;;;;;;2059239;28;20214;-83
2023/07/19 00:37:07;;;;;;;5.30;4.07;;;16.20;99.90;;;;;;2058920;28;20271;-83
2023/07/19 00:38:08;;;;;;;6.10;3.87;;;16.30;99.90;;;;;;2062836;28;20202;-83
2023/07/19 00:39:09;;;;;;;5.37;3.47;;;16.40;99.90;;;;;;2065313;28;20214;-83
2023/07/19 00:40:10;;;;;;;5.60;4.00;;;16.20;99.90;;;;;;2081356;28;20204;-84
2023/07/19 00:41:11;;;;;;;7.00;4.40;;;16.20;99.90;;;;;;2069749;28;20197;-82
2023/07/19 00:42:11;;;;;;;4.67;3.90;;;16.10;99.90;;;;;;2065187;28;20221;-83
2023/07/19 00:43:12;;;;;;;4.73;3.97;;;16.10;99.90;;;;;;2071499;28;20223;-84
2023/07/19 00:44:13;;;;;;;6.37;3.90;;;16.00;99.90;;;;;;2079017;28;20196;-83
2023/07/19 00:45:14;;;;;;;5.57;3.80;;;15.90;99.90;;;;;;2079932;28;20251;-84
2023/07/19 00:46:14;;;;;;;6.10;3.97;;;16.00;99.90;;;;;;2072061;28;20252;-83
2023/07/19 00:47:16;;;;;;;7.33;4.03;;;16.00;99.90;;;;;;2070828;28;20213;-82
2023/07/19 00:48:17;;;;;;;5.93;3.92;;;16.10;99.90;;;;;;2069641;28;20509;-82
2023/07/19 00:49:18;;;;;;;4.85;3.13;;;16.10;99.90;;;;;;2064758;28;20201;-83
2023/07/19 00:50:19;;;;;;;6.13;3.80;;;16.20;99.90;;;;;;2073136;28;20216;-84
2023/07/19 00:51:21;;;;;;;5.30;3.40;;;16.10;99.90;;;;;;2075732;28;20190;-83
2023/07/19 00:52:22;;;;;;;5.00;3.33;;;16.20;99.90;;;;;;2066048;28;20253;-84
2023/07/19 00:53:25;;;;;;;6.97;3.22;;;16.30;99.90;;;;;;2066326;28;20233;-82
2023/07/19 00:54:29;;;;;;;4.25;3.65;;;16.20;99.90;;;;;;2065872;28;20256;-84
2023/07/19 00:55:30;;;;;;;5.20;3.47;;;16.20;99.90;;;;;;2067405;28;20343;-84
2023/07/19 00:56:32;;;;;;;3.67;3.30;;;16.20;99.90;;;;;;2070840;28;20284;-83
2023/07/19 00:57:34;;;;;;;4.43;3.25;;;16.20;99.90;;;;;;2070686;28;20229;-82
2023/07/19 00:58:35;;;;;;;3.97;3.13;;;16.20;99.90;;;;;;2073995;28;20312;-83
2023/07/19 00:59:37;;;;;;;7.22;3.80;;;16.20;99.90;;;;;;2071223;28;20700;-83
2023/07/19 01:00:38;;;;;;;4.53;3.27;;;16.10;99.90;;;;;;2072037;28;20227;-82
2023/07/19 01:01:42;;;;;;;4.77;3.40;;;16.00;99.90;;;;;;2061207;28;21078;-82
2023/07/19 01:02:43;;;;;;;5.65;3.65;;;16.00;99.90;;;;;;2060577;28;20225;-82
2023/07/19 01:03:44;;;;;;;5.30;3.97;;;16.10;99.90;;;;;;2071584;28;20217;-82
2023/07/19 01:04:45;;;;;;;7.28;3.80;;;16.20;99.90;;;;;;2079958;28;20466;-83
2023/07/19 01:05:46;;;;;;;4.57;3.53;;;16.20;99.90;;;;;;2068226;28;20238;-83
2023/07/19 01:06:48;;;;;;;4.33;3.40;;;16.20;99.90;;;;;;2068171;28;20485;-81
2023/07/19 01:07:48;;;;;;;5.78;3.80;;;16.30;99.90;;;;;;2076248;28;20491;-81
2023/07/19 01:08:49;;;;;;;5.50;3.67;;;16.30;99.90;;;;;;2064489;28;20207;-82
2023/07/19 01:09:51;;;;;;;5.13;3.57;;;16.30;99.90;;;;;;2076687;28;20233;-82
2023/07/19 01:10:53;;;;;;;7.43;3.67;;;16.30;99.90;;;;;;2069583;28;20601;-82
2023/07/19 01:11:54;;;;;;;7.07;3.88;;;16.30;99.90;;;;;;2064659;28;20221;-83
2023/07/19 01:13:15;;;;;;;6.00;4.30;;;16.30;99.90;;;;;;2064242;28;20301;-84
2023/07/19 01:14:15;;;;;;;5.43;3.33;;;16.30;99.90;;;;;;2065663;28;20717;-83
2023/07/19 01:15:16;;;;;;;5.07;3.20;;;16.40;99.90;;;;;;2056652;28;20183;-81
2023/07/19 01:16:17;;;;;;;4.60;3.53;;;16.20;99.90;;;;;;2063963;28;20190;-81
2023/07/19 01:17:17;;;;;;;7.17;3.70;;;16.20;99.90;;;;;;2073180;28;20744;-83
2023/07/19 01:18:19;;;;;;;5.63;3.80;;;16.20;99.90;;;;;;2072163;28;20664;-82
2023/07/19 01:19:20;;;;;;;4.80;3.55;;;16.30;99.90;;;;;;2071258;28;20190;-82
2023/07/19 01:20:21;;;;;;;5.60;3.92;;;16.40;99.90;;;;;;2070172;28;20304;-82
2023/07/19 01:21:22;;;;;;;7.13;4.33;;;16.30;99.90;;;;;;2065092;28;20233;-82
2023/07/19 01:22:32;;;;;;;7.18;3.90;;;16.30;99.90;;;;;;2064832;28;20783;-82
2023/07/19 01:23:33;;;;;;;4.28;3.45;;;16.30;99.90;;;;;;2077358;28;20236;-82
2023/07/19 01:24:34;;;;;;;7.27;3.97;;;16.30;99.90;;;;;;2079311;28;20279;-83
2023/07/19 01:25:34;;;;;;;5.57;4.00;;;16.30;99.90;;;;;;2081116;28;20627;-82
2023/07/19 01:26:35;;;;;;;8.07;4.80;;;16.30;99.90;;;;;;2068230;28;20253;-82
2023/07/19 01:27:36;;;;;;;6.57;3.87;;;16.30;99.90;;;;;;2068990;28;20287;-82
2023/07/19 01:28:37;;;;;;;4.73;3.90;;;16.20;99.90;;;;;;2070954;28;20305;-83
2023/07/19 01:29:38;;;;;;;4.63;3.67;;;16.20;99.90;;;;;;2070661;28;20222;-83
2023/07/19 01:30:38;;;;;;;5.53;3.53;;;16.10;99.90;;;;;;2064655;28;20718;-83
2023/07/19 01:31:39;;;;;;;4.73;3.90;;;16.20;99.90;;;;;;2064629;28;20248;-83
2023/07/19 01:32:40;;;;;;;5.57;4.00;;;16.20;99.90;;;;;;2065358;28;20272;-82
2023/07/19 01:33:41;;;;;;;7.30;3.70;;;16.10;99.90;;;;;;2072355;28;20244;-83
2023/07/19 01:34:41;;;;;;;5.27;3.43;;;16.20;99.90;;;;;;2065008;28;20601;-82
2023/07/19 01:35:42;;;;;;;7.30;5.17;;;16.20;99.90;;;;;;2061883;28;20253;-82
2023/07/19 01:36:43;;;;;;;5.10;3.77;;;16.10;99.90;;;;;;2064082;28;20214;-83
2023/07/19 01:37:43;;;;;;;4.80;3.60;;;16.10;99.90;;;;;;2065302;28;20221;-82
2023/07/19 01:38:44;;;;;;;4.27;3.23;;;16.10;99.90;;;;;;2077744;28;20221;-81
2023/07/19 01:39:45;;;;;;;4.63;3.50;;;16.10;99.90;;;;;;2079833;28;20236;-82
2023/07/19 01:40:46;;;;;;;8.70;3.70;;;16.10;99.90;;;;;;2069725;28;20232;-83
2023/07/19 01:41:47;;;;;;;5.27;4.03;;;16.10;99.90;;;;;;2059788;28;20229;-83
2023/07/19 01:42:47;;;;;;;6.13;3.93;;;16.00;99.90;;;;;;2058947;28;20227;-83
2023/07/19 01:43:48;;;;;;;7.10;4.60;;;16.10;99.90;;;;;;2073493;28;20244;-82
2023/07/19 01:44:49;;;;;;;6.40;4.30;;;15.90;99.90;;;;;;2076824;28;20257;-82
2023/07/19 01:45:49;;;;;;;5.77;3.77;;;15.90;99.90;;;;;;2077615;28;20233;-83
2023/07/19 01:46:50;;;;;;;5.00;3.63;;;15.90;99.90;;;;;;2077187;28;20225;-82
2023/07/19 01:47:51;;;;;;;6.37;4.23;;;15.80;99.90;;;;;;2066675;28;20222;-83
2023/07/19 01:48:51;;;;;;;5.87;4.27;;;15.80;99.90;;;;;;2075966;28;20264;-83
2023/07/19 01:49:52;;;;;;;5.20;3.67;;;15.80;99.90;;;;;;2071392;28;20260;-83
2023/07/19 01:50:53;;;;;;;5.77;4.13;;;15.70;99.90;;;;;;2066059;28;20230;-84
2023/07/19 01:51:54;;;;;;;5.33;3.83;;;15.70;99.90;;;;;;2071231;28;20221;-83
2023/07/19 01:52:54;;;;;;;4.87;3.70;;;15.60;99.90;;;;;;2078981;28;20667;-84
2023/07/19 01:53:55;;;;;;;4.73;3.77;;;15.60;99.90;;;;;;2074128;28;20252;-84
2023/07/19 01:54:56;;;;;;;6.90;3.87;;;15.50;99.90;;;;;;2066696;28;20222;-82
2023/07/19 01:55:57;;;;;;;5.77;4.07;;;15.60;99.90;;;;;;2065844;28;20225;-84
2023/07/19 01:56:58;;;;;;;4.77;3.80;;;15.70;99.90;;;;;;2066969;28;20450;-83
2023/07/19 01:57:58;;;;;;;4.80;3.60;;;15.70;99.90;;;;;;2065647;28;20290;-83
2023/07/19 01:58:59;;;;;;;5.37;4.30;;;15.80;99.90;;;;;;2073346;28;20470;-83
2023/07/19 02:00:00;;;;;;;5.03;4.20;;;15.70;99.90;;;;;;2073304;28;20226;-83
2023/07/19 02:01:00;;;;;;;5.40;3.90;;;15.70;99.90;;;;;;2066852;28;20218;-83
2023/07/19 02:02:01;;;;;;;5.60;4.27;;;15.70;99.90;;;;;;2062617;28;20238;-83
2023/07/19 02:03:02;;;;;;;7.67;4.63;;;15.70;99.90;;;;;;2073090;28;20199;-82
2023/07/19 02:04:03;;;;;;;5.63;4.13;;;15.70;99.90;;;;;;2072501;28;20658;-82
2023/07/19 02:05:04;;;;;;;7.77;4.57;;;15.60;99.90;;;;;;2072541;28;20276;-84
2023/07/19 02:06:05;;;;;;;4.82;4.07;;;15.60;99.90;;;;;;2080212;28;20200;-83
2023/07/19 02:07:06;;;;;;;4.73;4.17;;;15.60;99.90;;;;;;2057721;28;20183;-83
2023/07/19 02:08:06;;;;;;;6.47;3.90;;;15.60;99.90;;;;;;2065362;28;20186;-81
2023/07/19 02:09:07;;;;;;;6.17;4.10;;;15.60;99.90;;;;;;2061375;28;20193;-83
2023/07/19 02:10:09;;;;;;;5.33;3.87;;;15.60;99.90;;;;;;2067468;28;20220;-82
2023/07/19 02:11:09;;;;;;;4.45;3.97;;;15.40;99.90;;;;;;2076295;28;20213;-83
2023/07/19 02:12:10;;;;;;;5.40;4.57;;;15.40;99.90;;;;;;2072521;28;20182;-83
2023/07/19 02:13:11;;;;;;;6.17;4.30;;;15.30;99.90;;;;;;2081529;28;20649;-83
2023/07/19 02:14:11;;;;;;;6.37;3.50;;;15.30;99.90;;;;;;2080336;28;20235;-84
2023/07/19 02:15:12;;;;;;;7.70;3.90;;;15.30;99.90;;;;;;2073802;28;20227;-83
2023/07/19 02:16:13;;;;;;;6.33;4.17;;;15.30;99.90;;;;;;2072102;28;20208;-84
2023/07/19 02:17:14;;;;;;;6.10;4.28;;;15.30;99.90;;;;;;2079858;28;20196;-84
2023/07/19 02:18:15;;;;;;;4.60;3.40;;;15.40;99.90;;;;;;2072310;28;20185;-84
2023/07/19 02:19:15;;;;;;;6.67;3.80;;;15.40;99.90;;;;;;2063308;28;20193;-83
2023/07/19 02:20:19;;;;;;;4.73;4.20;;;15.40;99.90;;;;;;2071112;28;20212;-83
2023/07/19 02:21:20;;;;;;;6.22;4.00;;;15.40;99.90;;;;;;2072163;28;20654;-84
2023/07/19 02:22:20;;;;;;;6.43;4.23;;;15.40;99.90;;;;;;2074064;28;20221;-82
2023/07/19 02:23:21;;;;;;;4.80;3.50;;;15.40;99.90;;;;;;2073116;28;20339;-83
2023/07/19 02:24:22;;;;;;;5.00;3.17;;;15.40;99.90;;;;;;2073425;28;20236;-82
2023/07/19 02:25:23;;;;;;;5.77;3.60;;;15.40;99.90;;;;;;2064504;28;20230;-83
2023/07/19 02:26:24;;;;;;;6.27;3.87;;;15.40;99.90;;;;;;2055026;28;20696;-82
2023/07/19 02:27:25;;;;;;;4.63;3.30;;;15.40;99.90;;;;;;2071407;28;20234;-83
2023/07/19 02:28:25;;;;;;;8.33;4.17;;;15.50;99.90;;;;;;2063541;28;20450;-82
2023/07/19 02:29:26;;;;;;;7.90;4.10;;;15.60;99.90;;;;;;2062158;28;20234;-83
2023/07/19 02:30:27;;;;;;;5.50;4.00;;;15.40;99.90;;;;;;2061921;28;20234;-83
2023/07/19 02:31:27;;;;;;;5.20;3.60;;;15.40;99.90;;;;;;2062688;28;20238;-82
2023/07/19 02:32:28;;;;;;;5.10;3.93;;;15.50;99.90;;;;;;2068809;28;20294;-82
2023/07/19 02:33:29;;;;;;;4.50;3.53;;;15.50;99.90;;;;;;2069069;28;20230;-82
2023/07/19 02:34:30;;;;;;;5.10;3.35;;;15.30;99.90;;;;;;2081492;28;20299;-82
2023/07/19 02:35:31;;;;;;;6.05;3.63;;;15.20;99.90;;;;;;2068826;28;20219;-84
2023/07/19 02:36:34;;;;;;;4.20;3.53;;;15.30;99.90;;;;;;2069264;28;20301;-83
2023/07/19 02:37:34;;;;;;;4.10;3.30;;;15.20;99.90;;;;;;2075087;28;20236;-82
2023/07/19 02:38:35;;;;;;;5.43;3.77;;;15.20;99.90;;;;;;2070314;28;20666;-81
2023/07/19 02:39:36;;;;;;;6.67;4.10;;;15.20;99.90;;;;;;2068392;28;20245;-84
2023/07/19 02:40:37;;;;;;;6.60;3.70;;;15.30;99.90;;;;;;2074152;28;20236;-83
2023/07/19 02:41:38;;;;;;;6.57;4.07;;;15.20;99.90;;;;;;2081842;28;20229;-81
2023/07/19 02:42:38;;;;;;;5.53;4.40;;;15.30;99.90;;;;;;2077983;28;20232;-81
2023/07/19 02:43:39;;;;;;;5.57;3.50;;;15.30;99.90;;;;;;2070349;28;20224;-83
2023/07/19 02:44:40;;;;;;;4.43;3.73;;;15.40;99.90;;;;;;2073282;28;20690;-83
2023/07/19 02:45:41;;;;;;;6.07;3.60;;;15.40;99.90;;;;;;2081703;28;20225;-83
2023/07/19 02:46:42;;;;;;;7.32;3.83;;;15.60;99.90;;;;;;2081846;28;20256;-84
2023/07/19 02:47:43;;;;;;;4.83;4.00;;;15.70;99.90;;;;;;2070301;28;20256;-82
2023/07/19 02:48:43;;;;;;;4.57;3.57;;;15.70;99.90;;;;;;2064336;28;20731;-82
2023/07/19 02:49:44;;;;;;;4.20;3.50;;;15.80;99.90;;;;;;2057116;28;20302;-84
2023/07/19 02:50:46;;;;;;;4.93;3.33;;;15.80;99.90;;;;;;2068285;28;20249;-84
2023/07/19 02:51:46;;;;;;;4.88;3.33;;;15.70;99.90;;;;;;2072917;28;20213;-83
2023/07/19 02:52:47;;;;;;;4.53;3.63;;;15.80;99.90;;;;;;2065203;28;20222;-83
2023/07/19 02:53:49;;;;;;;4.70;3.40;;;15.80;99.90;;;;;;2064617;28;20218;-83
2023/07/19 02:54:49;;;;;;;6.47;3.70;;;16.00;99.90;;;;;;2066487;28;20223;-84
2023/07/19 02:55:50;;;;;;;6.77;3.53;;;15.80;99.90;;;;;;2058999;28;20465;-83
2023/07/19 02:56:51;;;;;;;5.53;4.10;;;15.70;99.90;;;;;;2069068;28;20555;-83
2023/07/19 02:57:52;;;;;;;6.40;3.90;;;15.60;99.90;;;;;;2058240;28;20250;-81
2023/07/19 02:58:52;;;;;;;5.37;3.43;;;15.80;99.90;;;;;;2072499;28;20249;-84
2023/07/19 02:59:53;;;;;;;4.90;3.43;;;15.80;99.90;;;;;;2075865;28;20473;-82
2023/07/19 03:00:54;;;;;;;4.43;3.27;;;15.80;99.90;;;;;;2065064;28;20226;-83
2023/07/19 03:01:55;;;;;;;5.13;3.33;;;15.90;99.90;;;;;;2063630;28;20226;-82
2023/07/19 03:02:56;;;;;;;6.20;3.93;;;15.90;99.90;;;;;;2075997;28;20298;-83
2023/07/19 03:04:02;;;;;;;5.60;3.97;;;15.90;99.90;;;;;;2083140;28;20227;-83
2023/07/19 03:05:04;;;;;;;5.93;3.78;;;15.90;99.90;;;;;;2071148;28;20225;-83
2023/07/19 03:06:04;;;;;;;5.18;3.70;;;15.90;99.90;;;;;;2068282;28;20194;-83
2023/07/19 03:07:05;;;;;;;6.27;4.20;;;15.90;99.90;;;;;;2064396;28;20193;-82
2023/07/19 03:08:07;;;;;;;5.23;3.53;;;15.90;99.90;;;;;;2081251;28;20298;-82
2023/07/19 03:09:07;;;;;;;6.53;3.85;;;16.00;99.90;;;;;;2070881;28;20265;-81
2023/07/19 03:10:09;;;;;;;6.13;4.20;;;16.00;99.90;;;;;;2068759;28;20210;-83
2023/07/19 03:11:09;;;;;;;5.05;3.58;;;16.00;99.90;;;;;;2080836;28;20173;-82
2023/07/19 03:12:10;;;;;;;7.13;3.70;;;16.00;99.90;;;;;;2065904;28;20178;-82
2023/07/19 03:13:11;;;;;;;5.03;3.97;;;16.00;99.90;;;;;;2067131;28;20186;-82
2023/07/19 03:14:12;;;;;;;5.30;4.10;;;16.00;99.90;;;;;;2072862;28;20208;-83
2023/07/19 03:15:12;;;;;;;5.67;4.30;;;16.10;99.90;;;;;;2059550;28;20183;-83
2023/07/19 03:16:13;;;;;;;5.77;4.10;;;16.10;99.90;;;;;;2066054;28;20178;-83
2023/07/19 03:17:14;;;;;;;6.63;3.80;;;16.10;99.90;;;;;;2076852;28;20685;-83
2023/07/19 03:18:14;;;;;;;6.37;4.13;;;16.20;99.90;;;;;;2082650;28;20181;-83
2023/07/19 03:19:15;;;;;;;5.40;3.93;;;16.10;99.90;;;;;;2078955;28;20626;-82
2023/07/19 03:20:16;;;;;;;4.90;3.47;;;16.20;99.90;;;;;;2066639;28;20205;-82
2023/07/19 03:21:18;;;;;;;5.90;3.60;;;16.30;99.90;;;;;;2073124;28;20389;-83
2023/07/19 03:22:19;;;;;;;4.97;3.45;;;16.30;99.90;;;;;;2070745;28;20198;-83
2023/07/19 03:23:19;;;;;;;4.87;3.30;;;16.40;99.90;;;;;;2064190;28;20282;-82
2023/07/19 03:24:20;;;;;;;7.40;3.80;;;16.40;99.90;;;;;;2057800;28;20418;-83
2023/07/19 03:25:22;;;;;;;5.73;3.87;;;16.30;99.90;;;;;;2066818;28;20245;-83
2023/07/19 03:26:23;;;;;;;7.23;3.83;;;16.30;99.90;;;;;;2067603;28;20780;-83
2023/07/19 03:27:24;;;;;;;5.70;3.93;;;16.30;99.90;;;;;;2067610;28;20468;-83
2023/07/19 03:28:29;;;;;;;5.53;4.00;;;16.20;99.90;;;;;;2079611;28;20919;-83
2023/07/19 03:29:30;;;;;;;7.67;4.57;;;16.20;99.90;;;;;;2085804;28;20728;-83
2023/07/19 03:30:30;;;;;;;6.90;3.93;;;16.30;99.90;;;;;;2074034;28;20478;-84
2023/07/19 03:31:31;;;;;;;5.87;3.80;;;16.10;99.90;;;;;;2081861;28;20291;-84
2023/07/19 03:32:32;;;;;;;5.77;3.60;;;16.10;99.90;;;;;;2073741;28;20369;-82
2023/07/19 03:33:32;;;;;;;5.97;4.10;;;16.10;99.90;;;;;;2074892;28;20293;-82
2023/07/19 03:34:34;;;;;;;5.97;3.77;;;16.00;99.90;;;;;;2063462;28;20246;-82
2023/07/19 03:35:34;;;;;;;4.37;3.70;;;16.00;99.90;;;;;;2072372;28;20254;-81
2023/07/19 03:36:35;;;;;;;6.13;4.10;;;16.00;99.90;;;;;;2086743;28;20482;-82
2023/07/19 03:37:36;;;;;;;4.23;3.80;;;16.10;99.90;;;;;;2078102;28;20273;-81
2023/07/19 03:38:36;;;;;;;5.70;3.50;;;16.00;99.90;;;;;;2063477;28;20241;-82
2023/07/19 03:39:37;;;;;;;5.97;4.23;;;16.10;99.90;;;;;;2056371;28;20233;-82
2023/07/19 03:40:38;;;;;;;5.07;4.03;;;15.90;99.90;;;;;;2074971;28;20705;-83
2023/07/19 03:41:38;;;;;;;8.57;4.17;;;16.00;99.90;;;;;;2074774;28;20221;-82
2023/07/19 03:42:39;;;;;;;5.67;4.07;;;16.00;99.90;;;;;;2075459;28;20218;-83
2023/07/19 03:43:40;;;;;;;5.63;3.87;;;16.10;99.90;;;;;;2082513;28;20275;-83
2023/07/19 03:44:41;;;;;;;7.43;4.23;;;16.00;99.90;;;;;;2074248;28;20666;-84
2023/07/19 03:45:42;;;;;;;6.03;4.40;;;16.10;99.90;;;;;;2058144;28;20227;-83
2023/07/19 03:46:43;;;;;;;6.60;4.07;;;16.20;99.90;;;;;;2066110;28;20222;-83
2023/07/19 03:47:44;;;;;;;6.23;4.63;;;16.20;99.90;;;;;;2082185;28;20974;-82
2023/07/19 03:48:44;;;;;;;6.17;3.87;;;16.30;99.90;;;;;;2078465;28;20483;-83
2023/07/19 03:49:45;;;;;;;7.80;4.43;;;16.30;99.90;;;;;;2061699;28;20218;-83
2023/07/19 03:51:03;;;;;;;7.87;4.83;;;16.20;99.90;;;;;;2066726;28;20286;-83
2023/07/19 03:52:05;;;;;;;5.53;4.13;;;16.30;99.90;;;;;;2061447;28;20221;-82
2023/07/19 03:53:05;;;;;;;5.20;4.43;;;16.40;99.90;;;;;;2058155;28;20429;-83
2023/07/19 03:54:06;;;;;;;7.07;4.13;;;16.50;99.90;;;;;;2065698;28;20459;-82
2023/07/19 03:55:07;;;;;;;6.03;4.77;;;16.60;99.90;;;;;;2070626;28;20181;-82
2023/07/19 03:56:08;;;;;;;6.83;4.50;;;16.60;99.90;;;;;;2066475;28;20209;-83
2023/07/19 03:57:09;;;;;;;7.77;4.87;;;16.70;99.90;;;;;;2070293;28;20443;-83
2023/07/19 03:58:10;;;;;;;6.50;4.20;;;16.70;99.90;;;;;;2069091;28;20194;-83
2023/07/19 03:59:11;;;;;;;8.33;5.17;;;16.90;99.90;;;;;;2067601;28;20202;-82
2023/07/19 04:00:12;;;;;;;8.03;4.80;;;16.90;99.90;;;;;;2077437;28;20594;-82
2023/07/19 04:01:12;;;;;;;7.07;4.73;;;17.00;99.90;;;;;;2069031;28;20466;-82
2023/07/19 04:02:13;;;;;;;6.10;4.50;;;17.10;99.90;;;;;;2084552;28;20494;-83
2023/07/19 04:03:14;;;;;;;5.57;4.13;;;17.20;99.90;;;;;;2080561;28;20185;-82
2023/07/19 04:04:14;;;;;;;7.10;5.00;;;17.30;99.90;;;;;;2073956;28;20655;-82
2023/07/19 04:05:15;;;;;;;5.93;4.67;;;17.30;99.90;;;;;;2074001;28;20200;-82
2023/07/19 04:06:17;;;;;;;8.03;5.43;;;17.40;99.90;;;;;;2080192;28;20228;-80
2023/07/19 04:07:18;;;;;;;5.77;5.13;;;17.50;99.90;;;;;;2071654;28;20501;-81
2023/07/19 04:08:19;;;;;;;6.43;4.53;;;17.50;99.90;;;;;;2074127;28;20427;-79
2023/07/19 04:09:21;;;;;;;9.20;5.00;;;17.50;99.90;;;;;;2075050;28;20434;-82
2023/07/19 04:10:22;;;;;;;6.37;4.37;;;17.50;99.90;;;;;;2068900;28;20233;-82
2023/07/19 04:11:23;;;;;;;6.50;4.57;;;17.60;99.90;;;;;;2072139;28;20462;-82
2023/07/19 04:12:23;;;;;;;7.63;4.50;;;17.80;99.90;;;;;;2064766;28;20233;-83
2023/07/19 04:13:26;;;;;;;5.97;4.63;;;17.80;99.90;;;;;;2055023;28;20470;-81
2023/07/19 04:14:27;;;;;;;7.07;5.37;;;17.80;99.90;;;;;;2068542;28;20334;-83
2023/07/19 04:15:27;;;;;;;4.67;3.90;;;17.90;99.90;;;;;;2063689;28;20540;-83
2023/07/19 04:16:28;;;;;;;6.20;4.43;;;17.90;99.90;;;;;;2065509;28;20253;-83
2023/07/19 04:17:29;;;;;;;8.87;4.63;;;18.00;99.90;;;;;;2078084;28;20264;-83
2023/07/19 04:18:29;;;;;;;7.90;5.07;;;18.00;99.90;;;;;;2077190;28;20257;-82
2023/07/19 04:19:30;;;;;;;6.93;4.73;;;18.10;99.90;;;;;;2072664;28;20264;-83
2023/07/19 04:20:31;;;;;;;7.20;4.80;;;18.00;99.90;;;;;;2072864;28;20237;-81
2023/07/19 04:21:32;;;;;;;7.80;4.80;;;18.00;99.90;;;;;;2072312;28;20233;-83
2023/07/19 04:22:33;;;;;;;5.07;3.77;;;18.10;99.90;;;;;;2073501;28;21022;-82
2023/07/19 04:23:33;;;;;;;5.13;4.30;;;18.00;99.90;;;;;;2073512;28;20602;-84
2023/07/19 04:24:34;;;;;;;7.27;4.67;;;18.10;99.90;;;;;;2064534;28;20793;-83
2023/07/19 04:25:35;;;;;;;6.53;4.27;;;18.00;99.90;;;;;;2061408;28;20235;-82
2023/07/19 04:26:36;;;;;;;6.10;4.10;;;18.00;99.90;;;;;;2065663;28;20226;-81
2023/07/19 04:27:36;;;;;;;6.13;4.20;;;18.10;99.90;;;;;;2072546;28;20233;-83
2023/07/19 04:28:37;;;;;;;4.80;4.03;;;18.10;99.90;;;;;;2072955;28;20241;-83
2023/07/19 04:29:38;;;;;;;5.30;4.53;;;18.10;99.90;;;;;;2072455;28;22477;-84
2023/07/19 04:30:38;;;;;;;7.13;3.70;;;18.10;99.90;;;;;;2077242;28;20229;-82
2023/07/19 04:31:40;;;;;;;4.53;3.67;;;18.10;99.90;;;;;;2068147;28;20602;-83
2023/07/19 04:32:41;;;;;;;4.90;3.87;;;18.10;99.90;;;;;;2063210;28;20648;-82
2023/07/19 04:33:42;;;;;;;4.30;3.63;;;18.10;99.90;;;;;;2068311;28;20463;-82
2023/07/19 04:34:42;;;;;;;5.90;3.70;;;18.20;99.90;;;;;;2073423;28;20221;-83
2023/07/19 04:35:43;;;;;;;5.20;3.83;;;18.20;99.80;;;;;;2064936;28;20478;-82
2023/07/19 04:36:48;;;;;;;5.33;3.80;;;18.20;99.70;;;;;;2064546;28;20250;-83
2023/07/19 04:37:50;;;;;;;5.20;4.10;;;18.10;99.80;;;;;;2064187;28;20230;-83
2023/07/19 04:38:51;;;;;;;7.53;4.00;;;18.20;99.90;;;;;;2072868;28;20466;-83
2023/07/19 04:39:52;;;;;;;4.70;3.90;;;18.20;99.90;;;;;;2074167;28;20470;-83
2023/07/19 04:40:52;;;;;;;5.07;3.50;;;18.20;99.90;;;;;;2063998;28;20232;-83
2023/07/19 04:41:53;;;;;;;5.47;4.03;;;18.20;99.30;;;;;;2063802;28;20274;-83
2023/07/19 04:42:54;;;;;;;5.70;4.20;;;18.20;99.60;;;;;;2053099;28;20262;-82
2023/07/19 04:43:54;;;;;;;5.67;3.33;;;18.20;99.90;;;;;;2063274;28;20225;-84
2023/07/19 04:44:55;;;;;;;4.50;3.40;;;18.20;99.90;;;;;;2073062;28;20221;-83
2023/07/19 04:45:56;;;;;;;4.63;3.57;;;18.20;99.80;;;;;;2067307;28;20225;-82
2023/07/19 04:46:56;;;;;;;5.60;3.63;;;18.30;98.60;;;;;;2076805;28;20220;-84
2023/07/19 04:47:58;;;;;;;5.43;3.50;;;18.30;97.70;;;;;;2066232;28;20226;-83
2023/07/19 04:48:59;;;;;;;5.73;3.30;;;18.30;97.10;;;;;;2074903;28;20229;-83
2023/07/19 04:50:00;;;;;;;5.00;3.47;;;18.20;96.90;;;;;;2088043;28;20477;-84
2023/07/19 04:51:01;;;;;;;6.00;3.67;;;18.30;96.30;;;;;;2093276;28;20244;-82
2023/07/19 04:52:01;;;;;;;4.30;2.90;;;18.40;96.80;;;;;;2081646;28;20221;-81
2023/07/19 04:53:02;;;;;;;6.10;3.63;;;18.40;96.30;;;;;;2074619;28;20435;-82
2023/07/19 04:54:03;;;;;;;4.40;3.23;;;18.50;96.50;;;;;;2062247;28;20226;-82
2023/07/19 04:55:05;;;;;;;4.10;3.47;;;18.60;96.60;;;;;;2058750;28;20184;-84
2023/07/19 04:56:05;;;;;;;8.37;3.90;;;18.60;96.20;;;;;;2064175;28;20252;-81
2023/07/19 04:57:06;;;;;;;4.60;3.50;;;18.70;95.80;;;;;;2066142;28;20965;-83
2023/07/19 04:58:07;;;;;;;5.30;3.47;;;18.70;96.60;;;;;;2071292;28;20693;-83
2023/07/19 04:59:08;;;;;;;4.43;3.57;;;18.70;95.30;;;;;;2061712;28;20486;-83
2023/07/19 05:00:11;;;;;;;4.33;3.50;;;18.50;96.50;;;;;;2072828;28;20224;-82
2023/07/19 05:01:12;;;;;;;6.80;3.43;;;18.60;96.80;;;;;;2078883;28;20184;-82
2023/07/19 05:02:13;;;;;;;6.20;3.73;;;18.50;96.50;;;;;;2060727;28;20441;-83
2023/07/19 05:03:14;;;;;;;4.33;3.37;;;18.60;96.80;;;;;;2057413;28;20194;-83
2023/07/19 05:04:14;;;;;;;6.03;3.50;;;18.60;96.90;;;;;;2065835;28;20272;-82
2023/07/19 05:05:15;;;;;;;5.97;4.13;;;18.60;97.20;;;;;;2073773;28;20178;-81
2023/07/19 05:06:16;;;;;;;6.57;3.77;;;18.60;96.90;;;;;;2066817;28;20618;-82
2023/07/19 05:07:16;;;;;;;4.20;3.63;;;18.60;97.10;;;;;;2066044;28;20186;-82
2023/07/19 05:08:17;;;;;;;5.47;3.97;;;18.60;96.00;;;;;;2066235;28;20186;-82
2023/07/19 05:09:18;;;;;;;4.33;3.93;;;18.50;96.50;;;;;;2080325;28;20212;-82
2023/07/19 05:10:19;;;;;;;5.43;3.90;;;18.50;97.00;;;;;;2074939;28;20264;-80
2023/07/19 05:11:20;;;;;;;6.60;4.10;;;18.50;97.50;;;;;;2060175;28;20195;-82
2023/07/19 05:12:21;;;;;;;4.93;3.70;;;18.50;97.10;;;;;;2065812;28;20813;-83
2023/07/19 05:13:21;;;;;;;5.50;3.90;;;18.50;97.20;;;;;;2064593;28;20478;-83
2023/07/19 05:14:23;;;;;;;6.40;3.77;;;18.50;97.00;;;;;;2077918;28;20730;-83
2023/07/19 05:15:24;;;;;;;5.10;3.23;;;18.50;96.90;;;;;;2065144;28;20678;-83
2023/07/19 05:16:25;;;;;;;5.53;3.40;;;18.60;96.70;;;;;;2068060;28;20472;-82
2023/07/19 05:17:26;;;;;;;5.13;3.80;;;18.60;96.40;;;;;;2064689;28;20718;-83
2023/07/19 05:18:27;;;;;;;3.97;2.87;;;18.70;96.20;;;;;;2066477;28;20674;-83